createdAt,value
2024-04-30T00:00:31.380Z,996.26
2024-04-30T00:01:31.331Z,996.27
2024-04-30T00:02:31.311Z,996.23
2024-04-30T00:03:31.349Z,996.28
2024-04-30T00:04:31.504Z,996.29
2024-04-30T00:05:31.305Z,996.34
2024-04-30T00:06:31.284Z,996.35
2024-04-30T00:07:31.363Z,996.30
2024-04-30T00:08:31.270Z,996.31
2024-04-30T00:09:31.249Z,996.30
2024-04-30T00:10:31.339Z,996.27
2024-04-30T00:11:31.278Z,996.26
2024-04-30T00:12:31.226Z,996.32
2024-04-30T00:13:31.294Z,996.27
2024-04-30T00:14:31.215Z,996.25
2024-04-30T00:15:31.206Z,996.24
2024-04-30T00:16:31.328Z,996.29
2024-04-30T00:17:31.218Z,996.34
2024-04-30T00:18:31.224Z,996.25
2024-04-30T00:19:31.268Z,996.29
2024-04-30T00:20:31.209Z,996.27
2024-04-30T00:21:31.185Z,996.29
2024-04-30T00:22:31.228Z,996.34
2024-04-30T00:23:31.142Z,996.36
2024-04-30T00:24:31.407Z,996.26
2024-04-30T00:25:31.273Z,996.31
2024-04-30T00:26:31.192Z,996.33
2024-04-30T00:27:31.121Z,996.27
2024-04-30T00:28:31.152Z,996.22
2024-04-30T00:29:31.216Z,996.26
2024-04-30T00:30:31.093Z,996.32
2024-04-30T00:31:31.166Z,996.26
2024-04-30T00:32:31.135Z,996.35
2024-04-30T00:33:31.080Z,996.29
2024-04-30T00:34:31.168Z,996.24
2024-04-30T00:35:31.098Z,996.24
2024-04-30T00:36:31.072Z,996.24
2024-04-30T00:37:31.080Z,996.28
2024-04-30T00:38:31.039Z,996.21
2024-04-30T00:39:31.035Z,996.20
2024-04-30T00:40:31.078Z,996.25
2024-04-30T00:41:31.042Z,996.26
2024-04-30T00:42:31.065Z,996.23
2024-04-30T00:43:31.070Z,996.27
2024-04-30T00:44:31.033Z,996.26
2024-04-30T00:45:31.015Z,996.21
2024-04-30T00:46:31.145Z,996.23
2024-04-30T00:47:31.010Z,996.23
2024-04-30T00:48:31.098Z,996.20
2024-04-30T00:49:31.082Z,996.20
2024-04-30T00:50:31.045Z,996.19
2024-04-30T00:51:31.235Z,996.19
2024-04-30T00:52:31.206Z,996.20
2024-04-30T00:53:31.328Z,996.17
2024-04-30T00:54:31.166Z,996.16
2024-04-30T00:55:31.003Z,996.15
2024-04-30T00:56:30.912Z,996.15
2024-04-30T00:57:30.909Z,996.16
2024-04-30T00:58:30.979Z,996.16
2024-04-30T00:59:30.880Z,996.16
2024-04-30T01:00:30.907Z,996.09
2024-04-30T01:01:31.030Z,996.14
2024-04-30T01:02:30.924Z,996.07
2024-04-30T01:03:30.961Z,996.10
2024-04-30T01:04:30.930Z,996.19
2024-04-30T01:05:30.846Z,996.09
2024-04-30T01:06:30.837Z,996.09
2024-04-30T01:07:31.113Z,996.11
2024-04-30T01:08:30.877Z,996.05
2024-04-30T01:09:30.823Z,996.04
2024-04-30T01:10:30.874Z,995.97
2024-04-30T01:11:30.858Z,996.00
2024-04-30T01:12:30.798Z,995.99
2024-04-30T01:13:31.646Z,995.97
2024-04-30T01:14:30.842Z,995.92
2024-04-30T01:15:30.776Z,996.00
2024-04-30T01:16:30.834Z,995.93
2024-04-30T01:17:30.888Z,995.94
2024-04-30T01:18:30.770Z,995.95
2024-04-30T01:19:30.847Z,996.01
2024-04-30T01:20:30.737Z,995.98
2024-04-30T01:21:30.739Z,995.99
2024-04-30T01:22:30.854Z,996.05
2024-04-30T01:23:30.805Z,996.06
2024-04-30T01:24:30.753Z,996.00
2024-04-30T01:25:30.839Z,996.08
2024-04-30T01:26:30.739Z,996.07
2024-04-30T01:27:30.723Z,996.02
2024-04-30T01:28:30.823Z,995.99
2024-04-30T01:29:30.690Z,996.05
2024-04-30T01:30:30.732Z,996.07
2024-04-30T01:31:30.731Z,996.00
2024-04-30T01:32:30.726Z,996.03
2024-04-30T01:33:30.704Z,995.96
2024-04-30T01:34:30.774Z,996.00
2024-04-30T01:35:30.681Z,995.97
2024-04-30T01:36:30.638Z,996.01
2024-04-30T01:37:30.706Z,995.95
2024-04-30T01:38:30.719Z,995.92
2024-04-30T01:39:30.612Z,995.93
2024-04-30T01:40:30.664Z,995.93
2024-04-30T01:41:30.680Z,995.93
2024-04-30T01:42:30.638Z,995.93
2024-04-30T01:43:31.048Z,995.91
2024-04-30T01:44:30.582Z,995.92
2024-04-30T01:45:30.641Z,995.89
2024-04-30T01:46:30.660Z,995.91
2024-04-30T01:47:30.670Z,995.92
2024-04-30T01:48:30.740Z,995.95
2024-04-30T01:49:30.704Z,995.93
2024-04-30T01:50:30.608Z,995.86
2024-04-30T01:51:30.531Z,995.87
2024-04-30T01:52:30.633Z,995.83
2024-04-30T01:53:30.579Z,995.85
2024-04-30T01:54:30.540Z,995.92
2024-04-30T01:55:30.656Z,995.92
2024-04-30T01:56:30.515Z,995.85
2024-04-30T01:57:30.537Z,995.85
2024-04-30T01:58:30.775Z,995.94
2024-04-30T01:59:30.481Z,995.95
2024-04-30T02:00:30.527Z,995.89
2024-04-30T02:01:30.470Z,995.86
2024-04-30T02:02:30.535Z,995.88
2024-04-30T02:03:30.602Z,995.89
2024-04-30T02:04:38.560Z,995.85
2024-04-30T02:05:31.662Z,995.87
2024-04-30T02:06:30.437Z,995.84
2024-04-30T02:07:30.541Z,995.83
2024-04-30T02:08:30.474Z,995.81
2024-04-30T02:09:31.393Z,995.81
2024-04-30T02:10:30.461Z,995.82
2024-04-30T02:11:30.455Z,995.82
2024-04-30T02:12:30.466Z,995.85
2024-04-30T02:13:30.466Z,995.80
2024-04-30T02:14:30.466Z,995.83
2024-04-30T02:15:30.488Z,995.78
2024-04-30T02:16:30.368Z,995.79
2024-04-30T02:17:30.571Z,995.73
2024-04-30T02:18:30.465Z,995.75
2024-04-30T02:19:30.578Z,995.67
2024-04-30T02:20:30.332Z,995.68
2024-04-30T02:21:30.427Z,995.64
2024-04-30T02:22:30.515Z,995.66
2024-04-30T02:23:30.378Z,995.66
2024-04-30T02:24:30.387Z,995.66
2024-04-30T02:25:30.364Z,995.66
2024-04-30T02:26:30.408Z,995.60
2024-04-30T02:27:30.409Z,995.54
2024-04-30T02:28:30.541Z,995.55
2024-04-30T02:29:30.371Z,995.58
2024-04-30T02:30:30.340Z,995.49
2024-04-30T02:31:30.360Z,995.45
2024-04-30T02:32:30.452Z,995.52
2024-04-30T02:33:30.303Z,995.44
2024-04-30T02:34:30.325Z,995.38
2024-04-30T02:35:30.292Z,995.36
2024-04-30T02:36:30.342Z,995.38
2024-04-30T02:37:30.248Z,995.35
2024-04-30T02:38:30.250Z,995.33
2024-04-30T02:39:30.236Z,995.37
2024-04-30T02:40:30.228Z,995.34
2024-04-30T02:41:30.211Z,995.32
2024-04-30T02:42:30.178Z,995.32
2024-04-30T02:43:30.741Z,995.31
2024-04-30T02:44:30.249Z,995.28
2024-04-30T02:45:30.183Z,995.33
2024-04-30T02:46:30.304Z,995.33
2024-04-30T02:47:30.286Z,995.32
2024-04-30T02:48:30.226Z,995.32
2024-04-30T02:49:30.359Z,995.26
2024-04-30T02:50:30.160Z,995.22
2024-04-30T02:51:30.115Z,995.23
2024-04-30T02:52:30.235Z,995.20
2024-04-30T02:53:30.121Z,995.20
2024-04-30T02:54:30.089Z,995.17
2024-04-30T02:55:30.222Z,995.21
2024-04-30T02:56:30.103Z,995.20
2024-04-30T02:57:30.079Z,995.15
2024-04-30T02:58:30.165Z,995.13
2024-04-30T02:59:30.051Z,995.14
2024-04-30T03:00:30.109Z,995.12
2024-04-30T03:01:30.069Z,995.14
2024-04-30T03:02:30.047Z,995.15
2024-04-30T03:03:30.140Z,995.12
2024-04-30T03:04:30.421Z,995.10
2024-04-30T03:05:30.024Z,995.07
2024-04-30T03:06:30.094Z,995.09
2024-04-30T03:07:30.051Z,995.12
2024-04-30T03:08:29.996Z,995.10
2024-04-30T03:09:30.001Z,995.10
2024-04-30T03:10:30.022Z,995.10
2024-04-30T03:11:30.027Z,995.13
2024-04-30T03:12:29.996Z,995.13
2024-04-30T03:13:30.006Z,995.10
2024-04-30T03:14:29.955Z,995.13
2024-04-30T03:15:29.968Z,995.11
2024-04-30T03:16:30.009Z,995.09
2024-04-30T03:17:30.285Z,995.06
2024-04-30T03:18:29.942Z,995.05
2024-04-30T03:19:30.047Z,995.01
2024-04-30T03:20:29.941Z,994.99
2024-04-30T03:21:29.903Z,995.02
2024-04-30T03:22:29.963Z,995.00
2024-04-30T03:23:29.950Z,995.03
2024-04-30T03:24:29.887Z,995.01
2024-04-30T03:25:29.902Z,995.03
2024-04-30T03:26:29.901Z,995.03
2024-04-30T03:27:30.944Z,995.05
2024-04-30T03:28:29.924Z,995.03
2024-04-30T03:29:29.856Z,995.07
2024-04-30T03:30:29.851Z,995.05
2024-04-30T03:31:29.988Z,995.04
2024-04-30T03:32:29.937Z,995.05
2024-04-30T03:33:29.995Z,995.02
2024-04-30T03:34:29.903Z,995.00
2024-04-30T03:35:29.820Z,994.96
2024-04-30T03:36:29.795Z,994.97
2024-04-30T03:37:29.839Z,995.03
2024-04-30T03:38:29.797Z,995.00
2024-04-30T03:39:29.800Z,994.96
2024-04-30T03:40:29.909Z,994.99
2024-04-30T03:41:29.779Z,995.04
2024-04-30T03:42:29.758Z,995.04
2024-04-30T03:43:29.775Z,995.03
2024-04-30T03:44:29.766Z,995.11
2024-04-30T03:45:29.735Z,995.06
2024-04-30T03:46:29.796Z,995.03
2024-04-30T03:47:29.807Z,995.09
2024-04-30T03:48:29.754Z,995.12
2024-04-30T03:49:29.766Z,995.05
2024-04-30T03:50:29.699Z,995.06
2024-04-30T03:51:29.692Z,995.05
2024-04-30T03:52:29.749Z,995.03
2024-04-30T03:53:29.721Z,995.08
2024-04-30T03:54:29.670Z,995.11
2024-04-30T03:55:29.723Z,995.17
2024-04-30T03:56:29.678Z,995.11
2024-04-30T03:57:29.656Z,995.04
2024-04-30T03:58:29.723Z,995.15
2024-04-30T03:59:29.659Z,995.15
2024-04-30T04:00:29.695Z,995.11
2024-04-30T04:01:29.644Z,995.11
2024-04-30T04:02:29.644Z,995.11
2024-04-30T04:03:29.691Z,995.11
2024-04-30T04:04:29.758Z,995.09
2024-04-30T04:05:29.593Z,995.12
2024-04-30T04:06:29.591Z,995.08
2024-04-30T04:07:29.635Z,995.10
2024-04-30T04:08:29.597Z,995.00
2024-04-30T04:09:29.582Z,995.08
2024-04-30T04:10:29.643Z,995.00
2024-04-30T04:11:29.621Z,995.03
2024-04-30T04:12:29.563Z,994.99
2024-04-30T04:13:29.617Z,994.97
2024-04-30T04:14:29.546Z,994.98
2024-04-30T04:15:29.553Z,995.03
2024-04-30T04:16:29.604Z,995.02
2024-04-30T04:17:29.630Z,995.09
2024-04-30T04:18:29.597Z,995.12
2024-04-30T04:19:29.547Z,995.02
2024-04-30T04:20:29.516Z,995.04
2024-04-30T04:21:29.535Z,995.01
2024-04-30T04:22:29.532Z,995.06
2024-04-30T04:23:29.537Z,995.03
2024-04-30T04:24:29.480Z,995.08
2024-04-30T04:25:29.597Z,995.03
2024-04-30T04:26:29.475Z,995.08
2024-04-30T04:27:29.448Z,995.03
2024-04-30T04:28:29.874Z,995.05
2024-04-30T04:29:29.455Z,995.02
2024-04-30T04:30:29.461Z,995.03
2024-04-30T04:31:29.455Z,994.96
2024-04-30T04:32:29.496Z,994.91
2024-04-30T04:33:29.411Z,995.00
2024-04-30T04:34:29.576Z,994.99
2024-04-30T04:35:29.461Z,994.97
2024-04-30T04:36:29.421Z,994.95
2024-04-30T04:37:29.473Z,994.97
2024-04-30T04:38:29.414Z,995.02
2024-04-30T04:39:29.383Z,994.99
2024-04-30T04:40:29.440Z,994.97
2024-04-30T04:41:29.366Z,995.03
2024-04-30T04:42:29.379Z,995.03
2024-04-30T04:43:29.353Z,995.01
2024-04-30T04:44:29.353Z,994.92
2024-04-30T04:45:29.355Z,994.98
2024-04-30T04:46:29.395Z,995.02
2024-04-30T04:47:29.385Z,994.99
2024-04-30T04:48:29.519Z,995.06
2024-04-30T04:49:29.326Z,995.03
2024-04-30T04:50:29.294Z,994.96
2024-04-30T04:51:29.295Z,995.03
2024-04-30T04:52:29.393Z,994.97
2024-04-30T04:53:29.304Z,995.03
2024-04-30T04:54:29.264Z,994.92
2024-04-30T04:55:29.301Z,994.88
2024-04-30T04:56:29.266Z,994.91
2024-04-30T04:57:29.275Z,994.91
2024-04-30T04:58:29.347Z,994.90
2024-04-30T04:59:29.270Z,994.88
2024-04-30T05:00:29.267Z,994.91
2024-04-30T05:01:29.287Z,994.84
2024-04-30T05:02:29.269Z,994.87
2024-04-30T05:03:29.251Z,994.88
2024-04-30T05:04:29.296Z,994.82
2024-04-30T05:05:29.187Z,994.87
2024-04-30T05:06:29.220Z,994.89
2024-04-30T05:07:29.231Z,994.89
2024-04-30T05:08:29.258Z,994.91
2024-04-30T05:09:29.153Z,994.94
2024-04-30T05:10:29.313Z,994.89
2024-04-30T05:11:29.206Z,994.87
2024-04-30T05:12:29.131Z,994.85
2024-04-30T05:13:29.186Z,994.83
2024-04-30T05:14:36.405Z,994.79
2024-04-30T05:15:29.115Z,994.82
2024-04-30T05:16:29.183Z,994.77
2024-04-30T05:17:29.284Z,994.83
2024-04-30T05:18:29.128Z,994.88
2024-04-30T05:19:29.143Z,994.81
2024-04-30T05:20:29.085Z,994.83
2024-04-30T05:21:29.099Z,994.83
2024-04-30T05:22:29.112Z,994.82
2024-04-30T05:23:29.104Z,994.82
2024-04-30T05:24:29.079Z,994.81
2024-04-30T05:25:29.329Z,994.84
2024-04-30T05:26:29.050Z,994.82
2024-04-30T05:27:29.036Z,994.80
2024-04-30T05:28:29.217Z,994.79
2024-04-30T05:29:29.054Z,994.75
2024-04-30T05:30:29.015Z,994.71
2024-04-30T05:31:29.033Z,994.72
2024-04-30T05:32:29.114Z,994.71
2024-04-30T05:33:29.586Z,994.75
2024-04-30T05:34:29.141Z,994.69
2024-04-30T05:35:28.988Z,994.67
2024-04-30T05:36:28.972Z,994.64
2024-04-30T05:37:29.009Z,994.73
2024-04-30T05:38:28.990Z,994.69
2024-04-30T05:39:28.994Z,994.69
2024-04-30T05:40:28.997Z,994.66
2024-04-30T05:41:29.023Z,994.68
2024-04-30T05:42:28.929Z,994.72
2024-04-30T05:43:28.984Z,994.67
2024-04-30T05:44:28.924Z,994.71
2024-04-30T05:45:28.908Z,994.68
2024-04-30T05:46:29.012Z,994.75
2024-04-30T05:47:28.901Z,994.70
2024-04-30T05:48:28.917Z,994.70
2024-04-30T05:49:28.907Z,994.71
2024-04-30T05:50:28.892Z,994.73
2024-04-30T05:51:28.868Z,994.74
2024-04-30T05:52:28.911Z,994.76
2024-04-30T05:53:28.880Z,994.75
2024-04-30T05:54:28.856Z,994.72
2024-04-30T05:55:28.862Z,994.67
2024-04-30T05:56:28.851Z,994.68
2024-04-30T05:57:28.852Z,994.69
2024-04-30T05:58:28.891Z,994.68
2024-04-30T05:59:28.824Z,994.72
2024-04-30T06:00:29.277Z,994.74
2024-04-30T06:01:28.821Z,994.68
2024-04-30T06:02:28.784Z,994.65
2024-04-30T06:03:28.850Z,994.61
2024-04-30T06:04:28.860Z,994.63
2024-04-30T06:05:29.680Z,994.62
2024-04-30T06:06:28.762Z,994.59
2024-04-30T06:07:28.846Z,994.55
2024-04-30T06:08:28.751Z,994.52
2024-04-30T06:09:28.774Z,994.48
2024-04-30T06:10:28.793Z,994.44
2024-04-30T06:11:28.797Z,994.48
2024-04-30T06:12:28.749Z,994.51
2024-04-30T06:13:28.741Z,994.47
2024-04-30T06:14:28.728Z,994.50
2024-04-30T06:15:28.695Z,994.51
2024-04-30T06:16:28.760Z,994.55
2024-04-30T06:17:28.728Z,994.49
2024-04-30T06:18:28.724Z,994.52
2024-04-30T06:19:28.730Z,994.55
2024-04-30T06:20:28.660Z,994.46
2024-04-30T06:21:31.774Z,994.48
2024-04-30T06:22:29.690Z,994.45
2024-04-30T06:23:28.654Z,994.40
2024-04-30T06:24:28.656Z,994.45
2024-04-30T06:25:28.654Z,994.42
2024-04-30T06:26:28.634Z,994.48
2024-04-30T06:27:28.744Z,994.39
2024-04-30T06:28:30.282Z,994.50
2024-04-30T06:29:28.731Z,994.46
2024-04-30T06:30:28.623Z,994.36
2024-04-30T06:31:28.666Z,994.43
2024-04-30T06:32:28.594Z,994.42
2024-04-30T06:33:28.733Z,994.37
2024-04-30T06:34:28.625Z,994.33
2024-04-30T06:35:28.592Z,994.33
2024-04-30T06:36:28.558Z,994.29
2024-04-30T06:37:28.596Z,994.28
2024-04-30T06:38:28.539Z,994.25
2024-04-30T06:39:28.580Z,994.34
2024-04-30T06:40:28.548Z,994.27
2024-04-30T06:41:28.526Z,994.30
2024-04-30T06:42:28.540Z,994.24
2024-04-30T06:43:28.541Z,994.28
2024-04-30T06:44:28.567Z,994.26
2024-04-30T06:45:28.495Z,994.28
2024-04-30T06:46:28.551Z,994.29
2024-04-30T06:47:28.520Z,994.21
2024-04-30T06:48:28.530Z,994.28
2024-04-30T06:49:28.535Z,994.25
2024-04-30T06:50:28.536Z,994.31
2024-04-30T06:51:28.465Z,994.21
2024-04-30T06:52:28.510Z,994.25
2024-04-30T06:53:28.442Z,994.20
2024-04-30T06:54:28.473Z,994.18
2024-04-30T06:55:28.501Z,994.20
2024-04-30T06:56:28.418Z,994.14
2024-04-30T06:57:28.429Z,994.16
2024-04-30T06:58:28.452Z,994.17
2024-04-30T06:59:28.417Z,994.14
2024-04-30T07:00:28.412Z,994.19
2024-04-30T07:01:28.450Z,994.23
2024-04-30T07:02:28.387Z,994.20
2024-04-30T07:03:28.372Z,994.16
2024-04-30T07:04:28.433Z,994.16
2024-04-30T07:05:28.457Z,994.15
2024-04-30T07:06:28.420Z,994.14
2024-04-30T07:07:28.369Z,994.16
2024-04-30T07:08:28.364Z,994.06
2024-04-30T07:09:28.321Z,994.08
2024-04-30T07:10:28.357Z,994.11
2024-04-30T07:11:28.354Z,994.06
2024-04-30T07:12:28.337Z,994.11
2024-04-30T07:13:28.329Z,994.04
2024-04-30T07:14:28.295Z,994.08
2024-04-30T07:15:28.282Z,994.08
2024-04-30T07:16:28.349Z,994.04
2024-04-30T07:17:28.523Z,994.08
2024-04-30T07:18:28.449Z,994.08
2024-04-30T07:19:28.284Z,994.04
2024-04-30T07:20:28.247Z,994.02
2024-04-30T07:21:28.241Z,994.11
2024-04-30T07:22:28.279Z,993.99
2024-04-30T07:23:28.223Z,994.02
2024-04-30T07:24:28.220Z,994.04
2024-04-30T07:25:29.180Z,994.03
2024-04-30T07:26:28.207Z,993.96
2024-04-30T07:27:28.225Z,994.03
2024-04-30T07:28:28.239Z,994.02
2024-04-30T07:29:28.212Z,994.02
2024-04-30T07:30:28.208Z,994.01
2024-04-30T07:31:28.275Z,994.05
2024-04-30T07:32:28.255Z,993.97
2024-04-30T07:33:28.316Z,994.01
2024-04-30T07:34:28.409Z,993.94
2024-04-30T07:35:28.144Z,994.03
2024-04-30T07:36:28.136Z,994.00
2024-04-30T07:37:28.171Z,994.04
2024-04-30T07:38:28.126Z,994.00
2024-04-30T07:39:28.114Z,993.98
2024-04-30T07:40:28.133Z,993.95
2024-04-30T07:41:28.110Z,994.01
2024-04-30T07:42:28.126Z,993.88
2024-04-30T07:43:28.173Z,993.93
2024-04-30T07:44:28.101Z,993.92
2024-04-30T07:45:28.112Z,993.90
2024-04-30T07:46:28.208Z,993.90
2024-04-30T07:47:28.157Z,993.90
2024-04-30T07:48:28.357Z,993.86
2024-04-30T07:49:28.073Z,993.89
2024-04-30T07:50:28.060Z,993.92
2024-04-30T07:51:28.037Z,993.88
2024-04-30T07:52:28.073Z,993.89
2024-04-30T07:53:28.111Z,993.87
2024-04-30T07:54:28.020Z,993.92
2024-04-30T07:55:28.063Z,993.87
2024-04-30T07:56:28.015Z,993.93
2024-04-30T07:57:28.002Z,993.82
2024-04-30T07:58:28.029Z,993.82
2024-04-30T07:59:27.987Z,993.84
2024-04-30T08:00:28.094Z,993.87
2024-04-30T08:01:27.999Z,993.85
2024-04-30T08:02:28.012Z,993.87
2024-04-30T08:03:28.018Z,993.88
2024-04-30T08:04:28.035Z,993.86
2024-04-30T08:05:28.651Z,993.83
2024-04-30T08:06:27.946Z,993.78
2024-04-30T08:07:27.995Z,993.69
2024-04-30T08:08:27.955Z,993.72
2024-04-30T08:09:27.921Z,993.72
2024-04-30T08:10:27.979Z,993.68
2024-04-30T08:11:27.930Z,993.70
2024-04-30T08:12:27.905Z,993.62
2024-04-30T08:13:27.915Z,993.58
2024-04-30T08:14:27.915Z,993.60
2024-04-30T08:15:27.925Z,993.56
2024-04-30T08:16:27.964Z,993.54
2024-04-30T08:17:27.978Z,993.49
2024-04-30T08:18:27.890Z,993.51
2024-04-30T08:19:27.936Z,993.57
2024-04-30T08:20:27.935Z,993.48
2024-04-30T08:21:27.886Z,993.54
2024-04-30T08:22:27.878Z,993.50
2024-04-30T08:23:27.852Z,993.52
2024-04-30T08:24:28.137Z,993.47
2024-04-30T08:25:27.852Z,993.46
2024-04-30T08:26:27.811Z,993.42
2024-04-30T08:27:27.819Z,993.43
2024-04-30T08:28:27.936Z,993.42
2024-04-30T08:29:27.848Z,993.40
2024-04-30T08:30:27.783Z,993.33
2024-04-30T08:31:27.799Z,993.33
2024-04-30T08:32:27.916Z,993.32
2024-04-30T08:33:27.874Z,993.33
2024-04-30T08:34:27.844Z,993.30
2024-04-30T08:35:27.761Z,993.32
2024-04-30T08:36:30.443Z,993.31
2024-04-30T08:37:29.262Z,993.25
2024-04-30T08:38:27.751Z,993.30
2024-04-30T08:39:27.776Z,993.39
2024-04-30T08:40:27.736Z,993.28
2024-04-30T08:41:27.713Z,993.27
2024-04-30T08:42:27.702Z,993.29
2024-04-30T08:43:27.735Z,993.31
2024-04-30T08:44:27.747Z,993.30
2024-04-30T08:45:27.680Z,993.36
2024-04-30T08:46:27.734Z,993.32
2024-04-30T08:47:27.838Z,993.31
2024-04-30T08:48:28.579Z,993.34
2024-04-30T08:49:33.946Z,993.21
2024-04-30T08:50:28.688Z,993.27
2024-04-30T08:51:27.632Z,993.14
2024-04-30T08:52:27.665Z,993.18
2024-04-30T08:53:27.626Z,993.15
2024-04-30T08:54:27.638Z,993.19
2024-04-30T08:55:27.643Z,993.22
2024-04-30T08:56:27.595Z,993.21
2024-04-30T08:57:27.614Z,993.20
2024-04-30T08:58:27.609Z,993.16
2024-04-30T08:59:27.597Z,993.16
2024-04-30T09:00:27.581Z,993.23
2024-04-30T09:01:27.611Z,993.19
2024-04-30T09:02:27.572Z,993.16
2024-04-30T09:03:27.661Z,993.16
2024-04-30T09:04:28.295Z,993.16
2024-04-30T09:05:27.539Z,993.14
2024-04-30T09:06:27.524Z,993.15
2024-04-30T09:07:27.550Z,993.17
2024-04-30T09:08:27.711Z,993.14
2024-04-30T09:09:27.502Z,993.19
2024-04-30T09:10:27.544Z,993.21
2024-04-30T09:11:27.581Z,993.09
2024-04-30T09:12:27.738Z,993.15
2024-04-30T09:13:27.543Z,993.10
2024-04-30T09:14:27.495Z,993.10
2024-04-30T09:15:27.477Z,993.15
2024-04-30T09:16:27.645Z,993.15
2024-04-30T09:17:27.503Z,993.10
2024-04-30T09:18:27.466Z,993.08
2024-04-30T09:19:27.536Z,993.10
2024-04-30T09:20:27.419Z,993.05
2024-04-30T09:21:27.428Z,993.01
2024-04-30T09:22:27.530Z,993.01
2024-04-30T09:23:27.413Z,993.07
2024-04-30T09:24:27.660Z,993.03
2024-04-30T09:25:27.432Z,993.00
2024-04-30T09:26:27.462Z,992.96
2024-04-30T09:27:27.409Z,993.00
2024-04-30T09:28:27.455Z,992.98
2024-04-30T09:29:27.436Z,992.97
2024-04-30T09:30:27.679Z,992.99
2024-04-30T09:31:27.365Z,992.96
2024-04-30T09:32:27.420Z,992.92
2024-04-30T09:33:27.402Z,992.91
2024-04-30T09:34:27.337Z,992.88
2024-04-30T09:35:27.300Z,992.86
2024-04-30T09:36:27.326Z,992.87
2024-04-30T09:37:27.344Z,992.87
2024-04-30T09:38:27.317Z,992.87
2024-04-30T09:39:27.291Z,992.89
2024-04-30T09:40:27.327Z,992.87
2024-04-30T09:41:27.262Z,992.82
2024-04-30T09:42:27.426Z,992.88
2024-04-30T09:43:27.292Z,992.81
2024-04-30T09:44:27.240Z,992.79
2024-04-30T09:45:27.236Z,992.72
2024-04-30T09:46:27.308Z,992.76
2024-04-30T09:47:27.311Z,992.69
2024-04-30T09:48:27.250Z,992.68
2024-04-30T09:49:27.284Z,992.70
2024-04-30T09:50:27.206Z,992.70
2024-04-30T09:51:27.204Z,992.71
2024-04-30T09:52:27.222Z,992.76
2024-04-30T09:53:27.309Z,992.77
2024-04-30T09:54:28.483Z,992.79
2024-04-30T09:55:27.338Z,992.69
2024-04-30T09:56:27.182Z,992.67
2024-04-30T09:57:27.172Z,992.70
2024-04-30T09:58:27.209Z,992.66
2024-04-30T09:59:27.155Z,992.64
2024-04-30T10:00:28.874Z,992.62
2024-04-30T10:01:27.215Z,992.62
2024-04-30T10:02:27.125Z,992.60
2024-04-30T10:03:27.145Z,992.60
2024-04-30T10:04:27.166Z,992.60
2024-04-30T10:05:27.180Z,992.57
2024-04-30T10:06:27.103Z,992.52
2024-04-30T10:07:27.150Z,992.55
2024-04-30T10:08:27.128Z,992.54
2024-04-30T10:09:27.092Z,992.59
2024-04-30T10:10:27.182Z,992.47
2024-04-30T10:11:27.084Z,992.44
2024-04-30T10:12:29.454Z,992.47
2024-04-30T10:13:27.138Z,992.56
2024-04-30T10:14:27.074Z,992.48
2024-04-30T10:15:27.065Z,992.45
2024-04-30T10:16:27.092Z,992.46
2024-04-30T10:17:27.164Z,992.47
2024-04-30T10:18:27.038Z,992.47
2024-04-30T10:19:27.106Z,992.46
2024-04-30T10:20:27.030Z,992.44
2024-04-30T10:21:27.030Z,992.37
2024-04-30T10:22:27.076Z,992.37
2024-04-30T10:23:26.996Z,992.35
2024-04-30T10:24:27.020Z,992.38
2024-04-30T10:25:27.023Z,992.37
2024-04-30T10:26:27.001Z,992.33
2024-04-30T10:27:26.979Z,992.24
2024-04-30T10:28:27.013Z,992.21
2024-04-30T10:29:26.977Z,992.19
2024-04-30T10:30:26.956Z,992.24
2024-04-30T10:31:26.982Z,992.21
2024-04-30T10:32:26.967Z,992.16
2024-04-30T10:33:26.951Z,992.16
2024-04-30T10:34:27.055Z,992.17
2024-04-30T10:35:26.967Z,992.08
2024-04-30T10:36:26.906Z,992.15
2024-04-30T10:37:26.924Z,992.13
2024-04-30T10:38:27.053Z,992.10
2024-04-30T10:39:27.483Z,992.10
2024-04-30T10:40:26.871Z,992.05
2024-04-30T10:41:26.877Z,992.02
2024-04-30T10:42:26.868Z,992.07
2024-04-30T10:43:26.900Z,992.07
2024-04-30T10:44:26.906Z,992.04
2024-04-30T10:45:26.851Z,992.02
2024-04-30T10:46:26.866Z,992.07
2024-04-30T10:47:26.901Z,992.08
2024-04-30T10:48:26.884Z,992.02
2024-04-30T10:49:26.841Z,992.00
2024-04-30T10:50:27.212Z,991.95
2024-04-30T10:51:26.892Z,991.95
2024-04-30T10:52:26.848Z,992.00
2024-04-30T10:53:26.800Z,991.99
2024-04-30T10:54:26.812Z,991.92
2024-04-30T10:55:26.803Z,992.01
2024-04-30T10:56:26.782Z,991.94
2024-04-30T10:57:26.777Z,991.94
2024-04-30T10:58:26.783Z,991.98
2024-04-30T10:59:26.889Z,991.91
2024-04-30T11:00:26.833Z,991.86
2024-04-30T11:01:26.911Z,991.91
2024-04-30T11:02:26.741Z,991.85
2024-04-30T11:03:26.811Z,991.93
2024-04-30T11:04:27.912Z,991.88
2024-04-30T11:05:26.893Z,991.94
2024-04-30T11:06:26.737Z,991.83
2024-04-30T11:07:26.716Z,991.92
2024-04-30T11:08:26.750Z,991.81
2024-04-30T11:09:28.662Z,991.75
2024-04-30T11:10:26.702Z,991.81
2024-04-30T11:11:26.693Z,991.83
2024-04-30T11:12:26.674Z,991.77
2024-04-30T11:13:26.764Z,991.79
2024-04-30T11:14:26.666Z,991.79
2024-04-30T11:15:26.653Z,991.70
2024-04-30T11:16:26.687Z,991.78
2024-04-30T11:17:27.049Z,991.75
2024-04-30T11:18:26.777Z,991.74
2024-04-30T11:19:26.646Z,991.69
2024-04-30T11:20:26.675Z,991.68
2024-04-30T11:21:26.611Z,991.63
2024-04-30T11:22:26.617Z,991.65
2024-04-30T11:23:26.638Z,991.62
2024-04-30T11:24:26.608Z,991.61
2024-04-30T11:25:26.612Z,991.67
2024-04-30T11:26:26.654Z,991.59
2024-04-30T11:27:26.576Z,991.60
2024-04-30T11:28:26.620Z,991.57
2024-04-30T11:30:26.554Z,991.51
2024-04-30T11:31:26.584Z,991.58
2024-04-30T11:32:26.618Z,991.51
2024-04-30T11:33:29.846Z,991.54
2024-04-30T11:34:26.616Z,991.48
2024-04-30T11:35:26.539Z,991.47
2024-04-30T11:36:26.529Z,991.48
2024-04-30T11:37:26.620Z,991.47
2024-04-30T11:38:26.609Z,991.46
2024-04-30T11:39:26.536Z,991.42
2024-04-30T11:40:26.538Z,991.43
2024-04-30T11:41:26.490Z,991.41
2024-04-30T11:42:31.273Z,991.34
2024-04-30T11:43:27.734Z,991.36
2024-04-30T11:44:26.470Z,991.29
2024-04-30T11:45:26.460Z,991.29
2024-04-30T11:46:26.502Z,991.33
2024-04-30T11:47:26.537Z,991.29
2024-04-30T11:48:29.599Z,991.24
2024-04-30T11:49:26.566Z,991.14
2024-04-30T11:50:26.431Z,991.23
2024-04-30T11:51:26.420Z,991.19
2024-04-30T11:52:26.466Z,991.26
2024-04-30T11:53:26.543Z,991.19
2024-04-30T11:54:26.434Z,991.16
2024-04-30T11:55:26.440Z,991.20
2024-04-30T11:56:26.511Z,991.23
2024-04-30T11:57:26.428Z,991.16
2024-04-30T11:58:26.461Z,991.17
2024-04-30T11:59:26.409Z,991.12
2024-04-30T12:00:26.381Z,991.08
2024-04-30T12:01:26.545Z,991.10
2024-04-30T12:02:26.398Z,991.11
2024-04-30T12:03:26.343Z,991.02
2024-04-30T12:04:26.648Z,991.04
2024-04-30T12:05:26.356Z,991.00
2024-04-30T12:06:26.399Z,991.03
2024-04-30T12:07:26.358Z,991.05
2024-04-30T12:08:26.323Z,990.98
2024-04-30T12:09:26.384Z,991.04
2024-04-30T12:10:26.339Z,991.07
2024-04-30T12:11:26.397Z,990.98
2024-04-30T12:12:26.304Z,990.98
2024-04-30T12:13:26.381Z,990.94
2024-04-30T12:14:26.304Z,990.98
2024-04-30T12:15:26.317Z,990.96
2024-04-30T12:16:26.385Z,990.89
2024-04-30T12:17:26.444Z,990.88
2024-04-30T12:18:26.309Z,990.87
2024-04-30T12:19:26.346Z,990.86
2024-04-30T12:20:26.283Z,990.89
2024-04-30T12:21:26.243Z,990.86
2024-04-30T12:22:26.319Z,990.84
2024-04-30T12:23:26.247Z,990.86
2024-04-30T12:24:26.279Z,990.83
2024-04-30T12:25:26.270Z,990.79
2024-04-30T12:26:26.246Z,990.82
2024-04-30T12:27:26.237Z,990.83
2024-04-30T12:28:26.243Z,990.81
2024-04-30T12:29:26.223Z,990.79